Time;durP1;ratioP1;P1;durP2;ratioP2;P2;SDS_P1;SDS_P2;PMS_P1;PMS_P2;Temp;Humidity;BMP_temperature;BMP_pressure;BME280_temperature;BME280_humidity;BME280_pressure;Samples;Min_cycle;Max_cycle;Signal;HPM_P1;HPM_P2
2023/04/22 00:01:37;;;;;;;;;;;10.70;99.90;;;;;;5125190;28;19962;-70
2023/04/22 00:04:04;;;;;;;;;;;10.70;99.90;;;;;;5125099;28;19919;-70
2023/04/22 00:06:31;;;;;;;;;;;10.70;99.90;;;;;;5124346;28;19919;-71
2023/04/22 00:08:58;;;;;;;;;;;10.60;99.90;;;;;;5125054;28;19924;-70
2023/04/22 00:11:26;;;;;;;;;;;10.60;99.90;;;;;;5125069;28;19930;-70
2023/04/22 00:13:52;;;;;;;;;;;10.60;99.90;;;;;;5124923;28;19923;-70
2023/04/22 00:16:20;;;;;;;;;;;10.50;99.90;;;;;;5124147;28;20254;-70
2023/04/22 00:18:46;;;;;;;;;;;10.40;99.90;;;;;;5124853;28;19926;-70
2023/04/22 00:21:13;;;;;;;;;;;10.50;99.90;;;;;;5124601;28;19987;-72
2023/04/22 00:23:40;;;;;;;;;;;10.50;99.90;;;;;;5124618;28;19955;-72
2023/04/22 00:26:06;;;;;;;;;;;10.50;99.90;;;;;;5124252;28;19924;-71
2023/04/22 00:28:34;;;;;;;;;;;10.50;99.90;;;;;;5124587;28;19958;-72
2023/04/22 00:31:02;;;;;;;;;;;10.50;99.90;;;;;;5124297;28;19920;-72
2023/04/22 00:33:28;;;;;;;;;;;10.50;99.90;;;;;;5124599;28;19919;-70
2023/04/22 00:35:55;;;;;;;;;;;10.50;99.90;;;;;;5124219;28;19949;-70
2023/04/22 00:38:21;;;;;;;;;;;10.40;99.90;;;;;;5124195;28;19926;-72
2023/04/22 00:40:48;;;;;;;;;;;10.40;99.90;;;;;;5124099;28;20223;-70
2023/04/22 00:43:16;;;;;;;;;;;10.30;99.90;;;;;;5124286;28;19920;-72
2023/04/22 00:45:44;;;;;;;;;;;10.30;99.90;;;;;;5123999;28;19920;-71
2023/04/22 00:48:11;;;;;;;;;;;10.30;99.90;;;;;;5124283;28;19920;-70
2023/04/22 00:50:40;;;;;;;;;;;10.30;99.90;;;;;;5123412;28;20392;-70
2023/04/22 00:53:06;;;;;;;;;;;10.30;99.90;;;;;;5124484;28;20006;-71
2023/04/22 00:55:33;;;;;;;;;;;10.30;99.90;;;;;;5124339;28;19999;-70
2023/04/22 00:58:00;;;;;;;;;;;10.20;99.90;;;;;;5124088;28;19919;-70
2023/04/22 01:00:27;;;;;;;;;;;10.20;99.90;;;;;;5124212;28;19991;-70
2023/04/22 01:02:57;;;;;;;;;;;10.20;99.90;;;;;;5123561;28;20003;-71
2023/04/22 01:05:23;;;;;;;;;;;10.20;99.90;;;;;;5124186;28;20119;-72
2023/04/22 01:07:50;;;;;;;;;;;10.20;99.90;;;;;;5123825;28;19927;-72
2023/04/22 01:10:18;;;;;;;;;;;10.20;99.90;;;;;;5124200;28;19920;-70
2023/04/22 01:12:44;;;;;;;;;;;10.20;99.90;;;;;;5124197;28;19987;-70
2023/04/22 01:15:11;;;;;;;;;;;10.20;99.90;;;;;;5123973;28;20164;-71
2023/04/22 01:17:38;;;;;;;;;;;10.20;99.90;;;;;;5123551;28;19991;-71
2023/04/22 01:20:09;;;;;;;;;;;10.10;99.90;;;;;;5123983;28;19926;-70
2023/04/22 01:22:36;;;;;;;;;;;10.10;99.90;;;;;;5123791;28;19987;-71
2023/04/22 01:25:04;;;;;;;;;;;10.00;99.90;;;;;;5123857;28;19924;-70
2023/04/22 01:27:31;;;;;;;;;;;10.00;99.90;;;;;;5123481;28;19926;-70
2023/04/22 01:29:58;;;;;;;;;;;10.00;99.90;;;;;;5123902;28;20183;-70
2023/04/22 01:32:24;;;;;;;;;;;10.00;99.90;;;;;;5128007;28;20114;-70
2023/04/22 01:34:51;;;;;;;;;;;10.00;99.90;;;;;;5127937;28;20002;-71
2023/04/22 01:37:18;;;;;;;;;;;9.90;99.90;;;;;;5127530;28;19920;-70
2023/04/22 01:39:44;;;;;;;;;;;10.00;99.90;;;;;;5127956;28;19926;-72
2023/04/22 01:42:13;;;;;;;;;;;9.90;99.90;;;;;;5127950;28;19920;-70
2023/04/22 01:44:40;;;;;;;;;;;9.90;99.90;;;;;;5127663;28;19920;-70
2023/04/22 01:47:06;;;;;;;;;;;9.90;99.90;;;;;;5127693;28;19919;-71
2023/04/22 01:49:33;;;;;;;;;;;9.90;99.90;;;;;;5127801;28;19919;-71
2023/04/22 01:52:00;;;;;;;;;;;9.80;99.90;;;;;;5127444;28;19919;-70
2023/04/22 01:54:26;;;;;;;;;;;9.80;99.90;;;;;;5127688;28;19947;-72
2023/04/22 01:56:54;;;;;;;;;;;9.80;99.90;;;;;;5126760;28;20251;-71
2023/04/22 01:59:21;;;;;;;;;;;9.80;99.90;;;;;;5127387;28;19955;-70
2023/04/22 02:01:48;;;;;;;;;;;9.80;99.90;;;;;;5125568;28;19934;-72
2023/04/22 02:04:15;;;;;;;;;;;9.80;99.90;;;;;;5127659;28;19934;-69
2023/04/22 02:06:41;;;;;;;;;;;9.80;99.90;;;;;;5126517;28;20200;-70
2023/04/22 02:09:08;;;;;;;;;;;9.70;99.90;;;;;;5127431;28;19983;-71
2023/04/22 02:11:35;;;;;;;;;;;9.70;99.90;;;;;;5127073;28;20278;-70
2023/04/22 02:14:01;;;;;;;;;;;9.70;99.90;;;;;;5127246;28;19920;-72
2023/04/22 02:16:29;;;;;;;;;;;9.70;99.90;;;;;;5126484;28;20154;-70
2023/04/22 02:18:56;;;;;;;;;;;9.70;99.90;;;;;;5127003;28;20283;-70
2023/04/22 02:21:23;;;;;;;;;;;9.70;99.90;;;;;;5127196;28;19987;-70
2023/04/22 02:23:50;;;;;;;;;;;9.70;99.90;;;;;;5126963;28;19983;-70
2023/04/22 02:26:16;;;;;;;;;;;9.70;99.90;;;;;;5126795;28;19920;-70
2023/04/22 02:28:43;;;;;;;;;;;9.70;99.90;;;;;;5127132;28;19979;-71
2023/04/22 02:31:10;;;;;;;;;;;9.70;99.90;;;;;;5126792;28;19966;-71
2023/04/22 02:33:37;;;;;;;;;;;9.70;99.90;;;;;;5127049;28;20111;-71
2023/04/22 02:36:04;;;;;;;;;;;9.70;99.90;;;;;;5126499;28;19926;-70
2023/04/22 02:38:31;;;;;;;;;;;9.70;99.90;;;;;;5126611;28;19919;-70
2023/04/22 02:40:57;;;;;;;;;;;9.70;99.90;;;;;;5126784;28;19990;-70
2023/04/22 02:43:24;;;;;;;;;;;9.70;99.90;;;;;;5125211;28;20263;-71
2023/04/22 02:45:51;;;;;;;;;;;9.60;99.90;;;;;;5126438;28;19926;-71
2023/04/22 02:48:17;;;;;;;;;;;9.60;99.90;;;;;;5126515;28;19983;-70
2023/04/22 02:50:45;;;;;;;;;;;9.60;99.90;;;;;;5126595;28;19951;-70
2023/04/22 02:53:12;;;;;;;;;;;9.60;99.90;;;;;;5126656;28;19927;-70
2023/04/22 02:55:40;;;;;;;;;;;9.60;99.90;;;;;;5125935;28;19961;-70
2023/04/22 02:58:07;;;;;;;;;;;9.60;99.90;;;;;;5125861;28;19982;-72
2023/04/22 03:00:34;;;;;;;;;;;9.70;99.90;;;;;;5126329;28;19924;-72
2023/04/22 03:03:01;;;;;;;;;;;9.60;99.90;;;;;;5126370;28;20007;-70
2023/04/22 03:05:27;;;;;;;;;;;9.60;99.90;;;;;;5125828;28;19919;-70
2023/04/22 03:07:55;;;;;;;;;;;9.60;99.90;;;;;;5125720;28;19920;-71
2023/04/22 03:10:22;;;;;;;;;;;9.60;99.90;;;;;;5125943;28;20115;-71
2023/04/22 03:12:48;;;;;;;;;;;9.60;99.90;;;;;;5126110;28;19991;-70
2023/04/22 03:15:15;;;;;;;;;;;9.50;99.90;;;;;;5126197;28;19920;-70
2023/04/22 03:17:42;;;;;;;;;;;9.50;99.90;;;;;;5125728;28;19962;-71
2023/04/22 03:20:09;;;;;;;;;;;9.50;99.90;;;;;;5125807;28;19983;-71
2023/04/22 03:22:35;;;;;;;;;;;9.50;99.90;;;;;;5125849;28;19958;-70
2023/04/22 03:25:05;;;;;;;;;;;9.50;99.90;;;;;;5123503;28;19955;-71
2023/04/22 03:27:31;;;;;;;;;;;9.50;99.90;;;;;;5123874;28;20272;-70
2023/04/22 03:29:58;;;;;;;;;;;9.50;99.90;;;;;;5125903;28;19919;-70
2023/04/22 03:32:25;;;;;;;;;;;9.50;99.90;;;;;;5125767;28;19951;-70
2023/04/22 03:34:52;;;;;;;;;;;9.50;99.90;;;;;;5125367;28;20231;-70
2023/04/22 03:37:18;;;;;;;;;;;9.50;99.90;;;;;;5125231;28;19982;-71
2023/04/22 03:39:45;;;;;;;;;;;9.50;99.90;;;;;;5125422;28;19920;-70
2023/04/22 03:42:13;;;;;;;;;;;9.60;99.90;;;;;;5125650;28;19991;-74
2023/04/22 03:44:40;;;;;;;;;;;9.50;99.90;;;;;;5125229;28;20110;-70
2023/04/22 03:47:07;;;;;;;;;;;9.50;99.90;;;;;;5125184;28;19920;-71
2023/04/22 03:49:33;;;;;;;;;;;9.50;99.90;;;;;;5125468;28;19988;-70
2023/04/22 03:52:00;;;;;;;;;;;9.50;99.90;;;;;;5125386;28;19920;-72
2023/04/22 03:54:27;;;;;;;;;;;9.50;99.90;;;;;;5125084;28;19955;-70
2023/04/22 03:56:53;;;;;;;;;;;9.50;99.90;;;;;;5124749;28;19926;-70
2023/04/22 03:59:21;;;;;;;;;;;9.50;99.90;;;;;;5125213;28;19926;-70
2023/04/22 04:01:50;;;;;;;;;;;9.40;99.90;;;;;;5125202;28;19991;-71
2023/04/22 04:04:17;;;;;;;;;;;9.40;99.90;;;;;;5125247;28;19920;-70
2023/04/22 04:06:43;;;;;;;;;;;9.40;99.90;;;;;;5124632;28;20263;-70
2023/04/22 04:09:10;;;;;;;;;;;9.40;99.90;;;;;;5125238;28;19983;-70
2023/04/22 04:11:37;;;;;;;;;;;9.40;99.90;;;;;;5125080;28;19957;-71
2023/04/22 04:14:04;;;;;;;;;;;9.40;99.90;;;;;;5124772;28;19994;-70
2023/04/22 04:16:32;;;;;;;;;;;9.30;99.90;;;;;;5124389;28;19987;-71
2023/04/22 04:18:58;;;;;;;;;;;9.30;99.90;;;;;;5124907;28;20235;-71
2023/04/22 04:21:25;;;;;;;;;;;9.30;99.90;;;;;;5124412;28;19962;-70
2023/04/22 04:23:52;;;;;;;;;;;9.30;99.90;;;;;;5124461;28;19957;-71
2023/04/22 04:26:19;;;;;;;;;;;9.30;99.90;;;;;;5124601;28;19955;-71
2023/04/22 04:28:46;;;;;;;;;;;9.30;99.90;;;;;;5124783;28;20028;-71
2023/04/22 04:31:12;;;;;;;;;;;9.30;99.90;;;;;;5124714;28;19923;-71
2023/04/22 04:33:41;;;;;;;;;;;9.20;99.90;;;;;;5124306;28;19926;-70
2023/04/22 04:36:09;;;;;;;;;;;9.20;99.90;;;;;;5124271;28;19926;-70
2023/04/22 04:38:35;;;;;;;;;;;9.20;99.90;;;;;;5124470;28;19987;-71
2023/04/22 04:41:02;;;;;;;;;;;9.30;99.90;;;;;;5124401;28;19986;-70
2023/04/22 04:43:29;;;;;;;;;;;9.30;99.90;;;;;;5124346;28;19926;-70
2023/04/22 04:45:56;;;;;;;;;;;9.30;99.90;;;;;;5124351;28;19978;-70
2023/04/22 04:48:23;;;;;;;;;;;9.30;99.90;;;;;;5124243;28;19919;-71
2023/04/22 04:50:52;;;;;;;;;;;9.30;99.90;;;;;;5124111;28;19919;-72
2023/04/22 04:53:19;;;;;;;;;;;9.30;99.90;;;;;;5124157;28;20287;-70
2023/04/22 04:55:46;;;;;;;;;;;9.30;99.90;;;;;;5124025;28;19920;-71
2023/04/22 04:58:13;;;;;;;;;;;9.40;99.90;;;;;;5124016;28;20166;-70
2023/04/22 05:00:39;;;;;;;;;;;9.40;99.90;;;;;;5124228;28;19982;-71
2023/04/22 05:03:06;;;;;;;;;;;9.50;99.90;;;;;;5122464;28;19920;-71
2023/04/22 05:05:33;;;;;;;;;;;9.50;99.90;;;;;;5123448;28;19920;-70
2023/04/22 05:08:01;;;;;;;;;;;9.50;99.90;;;;;;5123704;28;20160;-71
2023/04/22 05:10:28;;;;;;;;;;;9.60;99.90;;;;;;5123868;28;20270;-71
2023/04/22 05:12:54;;;;;;;;;;;9.60;99.90;;;;;;5123846;28;19919;-70
2023/04/22 05:15:21;;;;;;;;;;;9.70;99.90;;;;;;5123976;28;19926;-70
2023/04/22 05:17:48;;;;;;;;;;;9.80;99.90;;;;;;5123156;28;19999;-72
2023/04/22 05:20:14;;;;;;;;;;;9.90;99.90;;;;;;5123995;28;19927;-70
2023/04/22 05:22:42;;;;;;;;;;;9.90;99.90;;;;;;5124033;28;20004;-69
2023/04/22 05:25:10;;;;;;;;;;;10.00;99.90;;;;;;5123928;28;19920;-70
2023/04/22 05:27:37;;;;;;;;;;;10.10;99.90;;;;;;5123462;28;19919;-70
2023/04/22 05:30:04;;;;;;;;;;;10.20;99.90;;;;;;5123533;28;19987;-70
2023/04/22 05:32:31;;;;;;;;;;;10.30;99.90;;;;;;5123961;28;19924;-71
2023/04/22 05:34:58;;;;;;;;;;;10.50;99.90;;;;;;5123011;28;19987;-70
2023/04/22 05:37:24;;;;;;;;;;;10.50;99.90;;;;;;5123368;28;19987;-71
2023/04/22 05:39:51;;;;;;;;;;;10.60;99.90;;;;;;5123747;28;19951;-72
2023/04/22 05:42:19;;;;;;;;;;;10.70;99.90;;;;;;5123751;28;19987;-71
2023/04/22 05:44:45;;;;;;;;;;;10.80;99.90;;;;;;5123394;28;19997;-70
2023/04/22 05:47:12;;;;;;;;;;;10.90;99.90;;;;;;5123014;28;20278;-72
2023/04/22 05:49:39;;;;;;;;;;;10.90;99.90;;;;;;5121569;28;19982;-70
2023/04/22 05:52:05;;;;;;;;;;;11.10;99.90;;;;;;5123795;28;19943;-70
2023/04/22 05:54:32;;;;;;;;;;;11.20;99.90;;;;;;5123920;28;19927;-72
2023/04/22 05:56:59;;;;;;;;;;;11.30;99.90;;;;;;5122982;28;19955;-72
2023/04/22 05:59:27;;;;;;;;;;;11.40;99.90;;;;;;5123668;28;20320;-70
2023/04/22 06:01:53;;;;;;;;;;;11.50;99.90;;;;;;5123819;28;20156;-70
2023/04/22 06:04:20;;;;;;;;;;;11.60;99.90;;;;;;5123716;28;19988;-71
2023/04/22 06:06:47;;;;;;;;;;;11.70;99.90;;;;;;5123161;28;19955;-72
2023/04/22 06:09:13;;;;;;;;;;;11.90;99.90;;;;;;5123600;28;19923;-72
2023/04/22 06:11:40;;;;;;;;;;;12.00;99.90;;;;;;5122603;28;20150;-71
2023/04/22 06:14:07;;;;;;;;;;;12.20;99.90;;;;;;5123586;28;19951;-72
2023/04/22 06:16:35;;;;;;;;;;;12.30;99.90;;;;;;5123602;28;19983;-72
2023/04/22 06:19:01;;;;;;;;;;;12.30;99.90;;;;;;5127419;28;19982;-72
2023/04/22 06:21:28;;;;;;;;;;;12.40;99.90;;;;;;5126995;28;19982;-72
2023/04/22 06:23:55;;;;;;;;;;;12.50;99.90;;;;;;5127117;28;19982;-70
2023/04/22 06:26:21;;;;;;;;;;;12.50;99.90;;;;;;5126630;28;19920;-71
2023/04/22 06:28:48;;;;;;;;;;;12.50;99.90;;;;;;5127077;28;20153;-72
2023/04/22 06:31:14;;;;;;;;;;;12.50;99.90;;;;;;5127013;28;20033;-72
2023/04/22 06:33:42;;;;;;;;;;;12.60;99.90;;;;;;5127175;28;19983;-71
2023/04/22 06:36:09;;;;;;;;;;;12.70;99.90;;;;;;5126486;28;19951;-71
2023/04/22 06:38:36;;;;;;;;;;;12.70;99.90;;;;;;5120398;28;19982;-72
2023/04/22 06:41:02;;;;;;;;;;;12.80;99.90;;;;;;5106583;28;19920;-70
2023/04/22 06:43:29;;;;;;;;;;;12.80;99.90;;;;;;5106432;28;19955;-72
2023/04/22 06:45:55;;;;;;;;;;;13.00;99.90;;;;;;5106149;28;19959;-70
2023/04/22 06:48:23;;;;;;;;;;;13.00;99.90;;;;;;5103982;28;19926;-70
2023/04/22 06:50:51;;;;;;;;;;;13.10;99.90;;;;;;5105610;28;19920;-70
2023/04/22 06:53:17;;;;;;;;;;;13.10;99.90;;;;;;5105982;28;19988;-72
2023/04/22 06:55:44;;;;;;;;;;;13.20;99.90;;;;;;5105777;28;19920;-70
2023/04/22 06:58:10;;;;;;;;;;;13.30;99.90;;;;;;5106105;28;19927;-72
2023/04/22 07:00:37;;;;;;;;;;;13.40;99.90;;;;;;5105712;28;19920;-71
2023/04/22 07:03:04;;;;;;;;;;;13.50;99.90;;;;;;5105787;28;20227;-69
2023/04/22 07:05:30;;;;;;;;;;;13.70;99.90;;;;;;5105986;28;19962;-70
2023/04/22 07:07:58;;;;;;;;;;;13.70;99.90;;;;;;5105253;28;19920;-70
2023/04/22 07:10:25;;;;;;;;;;;13.80;99.90;;;;;;5106654;28;19920;-71
2023/04/22 07:12:52;;;;;;;;;;;13.90;99.90;;;;;;5105781;28;20252;-69
2023/04/22 07:15:18;;;;;;;;;;;14.00;99.90;;;;;;5105820;28;19955;-69
2023/04/22 07:17:45;;;;;;;;;;;14.00;99.90;;;;;;5105182;28;19983;-69
2023/04/22 07:20:12;;;;;;;;;;;14.10;99.90;;;;;;5105300;28;20283;-70
2023/04/22 07:22:38;;;;;;;;;;;14.20;99.90;;;;;;5105668;28;20107;-69
2023/04/22 07:25:07;;;;;;;;;;;14.30;99.90;;;;;;5105389;28;19926;-70
2023/04/22 07:27:34;;;;;;;;;;;14.30;99.90;;;;;;5104543;28;19920;-69
2023/04/22 07:30:01;;;;;;;;;;;14.30;99.90;;;;;;5122240;27;19927;-71
2023/04/22 07:32:27;;;;;;;;;;;14.40;99.90;;;;;;5124570;28;19927;-70
2023/04/22 07:34:54;;;;;;;;;;;14.50;99.90;;;;;;5125287;28;19987;-70
2023/04/22 07:37:21;;;;;;;;;;;14.60;99.90;;;;;;5125426;28;20179;-69
2023/04/22 07:39:48;;;;;;;;;;;14.70;99.90;;;;;;5146278;27;20122;-70
2023/04/22 07:42:16;;;;;;;;;;;14.70;99.90;;;;;;5135756;27;20167;-69
2023/04/22 07:44:42;;;;;;;;;;;14.80;99.90;;;;;;5136480;27;20199;-70
2023/04/22 07:47:09;;;;;;;;;;;14.90;99.90;;;;;;5145429;27;19987;-69
2023/04/22 07:49:36;;;;;;;;;;;15.00;99.90;;;;;;5142842;27;20207;-70
2023/04/22 07:52:02;;;;;;;;;;;15.10;99.90;;;;;;5114689;28;19920;-71
2023/04/22 07:54:29;;;;;;;;;;;15.20;99.90;;;;;;5125387;28;19955;-70
2023/04/22 07:56:57;;;;;;;;;;;15.30;99.90;;;;;;5114495;28;19986;-71
2023/04/22 07:59:25;;;;;;;;;;;15.40;99.90;;;;;;5105698;28;20253;-69
2023/04/22 08:01:51;;;;;;;;;;;15.50;99.90;;;;;;5104696;28;19919;-71
2023/04/22 08:04:18;;;;;;;;;;;15.60;99.90;;;;;;5121577;27;19955;-68
2023/04/22 08:06:45;;;;;;;;;;;15.60;99.90;;;;;;5114287;28;19920;-67
2023/04/22 08:09:12;;;;;;;;;;;15.60;99.90;;;;;;5121026;28;19990;-67
2023/04/22 08:11:38;;;;;;;;;;;15.60;99.90;;;;;;5124898;28;19951;-68
2023/04/22 08:14:05;;;;;;;;;;;15.70;99.90;;;;;;5124777;28;19982;-69
2023/04/22 08:16:33;;;;;;;;;;;15.70;99.90;;;;;;5123980;28;19987;-68
2023/04/22 08:18:59;;;;;;;;;;;15.80;99.90;;;;;;5124976;28;19920;-68
2023/04/22 08:21:27;;;;;;;;;;;16.00;99.90;;;;;;5124900;28;19986;-68
2023/04/22 08:23:53;;;;;;;;;;;16.10;99.90;;;;;;5124087;28;19955;-67
2023/04/22 08:26:20;;;;;;;;;;;16.20;99.90;;;;;;5124098;28;20199;-68
2023/04/22 08:28:47;;;;;;;;;;;16.20;99.90;;;;;;5124325;28;20200;-68
2023/04/22 08:31:13;;;;;;;;;;;16.30;99.90;;;;;;5124528;28;19955;-68
2023/04/22 08:33:41;;;;;;;;;;;16.40;99.90;;;;;;5124761;28;19978;-69
2023/04/22 08:36:08;;;;;;;;;;;16.40;99.90;;;;;;5124040;28;19999;-68
2023/04/22 08:38:35;;;;;;;;;;;16.50;99.90;;;;;;5124420;28;19955;-68
2023/04/22 08:41:03;;;;;;;;;;;16.60;99.90;;;;;;5121821;28;19986;-69
2023/04/22 08:43:29;;;;;;;;;;;16.70;99.90;;;;;;5124781;28;19979;-69
2023/04/22 08:45:56;;;;;;;;;;;16.70;99.90;;;;;;5123769;28;20207;-69
2023/04/22 08:48:23;;;;;;;;;;;16.70;99.90;;;;;;5124269;28;19995;-69
2023/04/22 08:50:51;;;;;;;;;;;16.80;99.90;;;;;;5124463;28;19919;-68
2023/04/22 08:53:17;;;;;;;;;;;16.90;99.90;;;;;;5124398;28;19942;-69
2023/04/22 08:55:44;;;;;;;;;;;17.00;99.90;;;;;;5123716;28;19982;-68
2023/04/22 08:58:11;;;;;;;;;;;17.10;99.90;;;;;;5123672;28;20115;-68
2023/04/22 09:00:39;;;;;;;;;;;17.20;99.90;;;;;;5124263;28;19919;-68
2023/04/22 09:03:06;;;;;;;;;;;17.30;99.90;;;;;;5124016;28;19955;-69
2023/04/22 09:05:33;;;;;;;;;;;17.40;99.90;;;;;;5124259;28;19986;-68
2023/04/22 09:08:02;;;;;;;;;;;17.50;99.90;;;;;;5123645;28;19920;-68
2023/04/22 09:10:29;;;;;;;;;;;17.60;99.90;;;;;;5124202;28;20118;-69
2023/04/22 09:12:56;;;;;;;;;;;17.70;99.90;;;;;;5124322;28;19949;-67
2023/04/22 09:15:23;;;;;;;;;;;17.80;99.90;;;;;;5124103;28;19998;-69
2023/04/22 09:17:51;;;;;;;;;;;17.90;99.90;;;;;;5123626;28;19919;-69
2023/04/22 09:20:18;;;;;;;;;;;18.00;99.90;;;;;;5124256;28;19988;-69
2023/04/22 09:22:46;;;;;;;;;;;18.00;99.90;;;;;;5122941;28;20120;-69
2023/04/22 09:25:18;;;;;;;;;;;18.00;99.90;;;;;;5123997;28;19919;-68
2023/04/22 09:27:48;;;;;;;;;;;18.00;99.90;;;;;;5123400;28;19968;-69
2023/04/22 09:30:14;;;;;;;;;;;18.00;99.90;;;;;;5123906;28;19927;-68
2023/04/22 09:32:41;;;;;;;;;;;18.00;99.90;;;;;;5124121;28;19920;-69
2023/04/22 09:35:08;;;;;;;;;;;18.10;99.90;;;;;;5124052;28;19959;-69
2023/04/22 09:37:35;;;;;;;;;;;18.00;99.90;;;;;;5123324;28;19920;-69
2023/04/22 09:40:03;;;;;;;;;;;17.90;99.90;;;;;;5124013;28;19983;-68
2023/04/22 09:42:31;;;;;;;;;;;17.90;99.90;;;;;;5121150;28;19919;-68
2023/04/22 09:44:58;;;;;;;;;;;17.90;99.90;;;;;;5123534;28;19926;-67
2023/04/22 09:47:25;;;;;;;;;;;18.00;99.90;;;;;;5122854;28;19926;-68
2023/04/22 09:49:52;;;;;;;;;;;18.10;99.90;;;;;;5123857;28;19920;-68
2023/04/22 09:52:23;;;;;;;;;;;18.20;99.90;;;;;;5125537;28;20262;-68
2023/04/22 09:54:50;;;;;;;;;;;18.40;99.90;;;;;;5127817;28;19983;-68
2023/04/22 09:57:17;;;;;;;;;;;18.50;99.90;;;;;;5126871;28;19969;-69
2023/04/22 09:59:45;;;;;;;;;;;18.50;99.90;;;;;;5127656;28;19991;-69
2023/04/22 10:02:12;;;;;;;;;;;18.60;99.90;;;;;;5127520;28;19986;-68
2023/04/22 10:04:39;;;;;;;;;;;18.70;99.90;;;;;;5127305;28;19926;-69
2023/04/22 10:07:05;;;;;;;;;;;18.90;99.90;;;;;;5127381;28;19986;-69
2023/04/22 10:09:32;;;;;;;;;;;19.10;99.90;;;;;;5127420;28;19920;-68
2023/04/22 10:11:59;;;;;;;;;;;19.30;99.90;;;;;;5127195;28;20262;-68
2023/04/22 10:14:26;;;;;;;;;;;19.40;99.90;;;;;;5127420;28;19983;-68
2023/04/22 10:16:56;;;;;;;;;;;19.20;99.90;;;;;;5126669;28;19919;-68
2023/04/22 10:19:24;;;;;;;;;;;19.10;99.90;;;;;;5127279;28;19926;-69
2023/04/22 10:21:53;;;;;;;;;;;19.10;99.90;;;;;;5126954;28;20208;-68
2023/04/22 10:24:20;;;;;;;;;;;19.30;99.90;;;;;;5126017;28;19954;-68
2023/04/22 10:26:51;;;;;;;;;;;19.50;99.90;;;;;;5126567;28;19990;-68
2023/04/22 10:29:19;;;;;;;;;;;19.60;99.90;;;;;;5126828;28;19951;-69
2023/04/22 10:31:50;;;;;;;;;;;19.60;99.90;;;;;;5127111;28;19947;-68
2023/04/22 10:34:18;;;;;;;;;;;19.60;99.90;;;;;;5126782;28;20179;-68
2023/04/22 10:36:58;;;;;;;;;;;19.70;99.90;;;;;;5126855;28;19951;-68
2023/04/22 10:39:26;;;;;;;;;;;19.90;99.90;;;;;;5126044;28;19920;-68
2023/04/22 10:41:53;;;;;;;;;;;20.20;99.90;;;;;;5124313;28;19920;-68
2023/04/22 10:44:20;;;;;;;;;;;20.50;99.90;;;;;;5126722;28;19919;-68
2023/04/22 10:46:55;;;;;;;;;;;20.80;99.90;;;;;;5125792;28;19920;-68
2023/04/22 10:49:24;;;;;;;;;;;21.00;99.90;;;;;;5123737;28;19994;-69
2023/04/22 10:51:51;;;;;;;;;;;21.30;99.90;;;;;;5126648;28;19942;-70
2023/04/22 10:54:36;;;;;;;;;;;21.40;99.90;;;;;;5126295;28;19920;-68
2023/04/22 10:57:03;;;;;;;;;;;21.40;99.90;;;;;;5126244;28;19983;-68
2023/04/22 10:59:31;;;;;;;;;;;21.50;99.90;;;;;;5126320;28;19919;-69
2023/04/22 11:02:00;;;;;;;;;;;21.60;99.90;;;;;;5126251;28;19954;-68
2023/04/22 11:04:28;;;;;;;;;;;21.80;99.90;;;;;;5125425;28;19942;-68
2023/04/22 11:07:14;;;;;;;;;;;21.90;99.90;;;;;;5107350;28;19987;-69
2023/04/22 11:09:43;;;;;;;;;;;21.90;99.90;;;;;;5110327;28;19991;-68
2023/04/22 11:12:28;;;;;;;;;;;22.00;99.90;;;;;;5126362;28;19986;-68
2023/04/22 11:14:55;;;;;;;;;;;22.10;99.90;;;;;;5123359;28;20113;-68
2023/04/22 11:17:21;;;;;;;;;;;22.10;99.90;;;;;;5120568;28;19920;-68
2023/04/22 11:19:54;;;;;;;;;;;22.10;99.90;;;;;;5104598;28;19920;-68
2023/04/22 11:22:22;;;;;;;;;;;22.00;99.90;;;;;;5103625;28;19977;-69
2023/04/22 11:24:53;;;;;;;;;;;21.80;99.90;;;;;;5102139;28;20119;-68
2023/04/22 11:27:25;;;;;;;;;;;21.80;99.90;;;;;;5102558;28;19998;-69
2023/04/22 11:30:00;;;;;;;;;;;21.80;99.90;;;;;;5105419;28;19959;-68
2023/04/22 11:32:27;;;;;;;;;;;21.70;99.90;;;;;;5105413;28;19926;-68
2023/04/22 11:34:56;;;;;;;;;;;21.70;99.90;;;;;;5105040;28;19924;-68
2023/04/22 11:37:22;;;;;;;;;;;21.50;99.90;;;;;;5101348;28;19958;-66
2023/04/22 11:39:50;;;;;;;;;;;21.50;99.90;;;;;;5104921;28;19920;-68
2023/04/22 11:42:20;;;;;;;;;;;21.50;99.90;;;;;;5105329;28;19962;-67
2023/04/22 11:44:47;;;;;;;;;;;21.60;99.90;;;;;;5104848;28;19979;-68
2023/04/22 11:47:13;;;;;;;;;;;21.60;99.90;;;;;;5104493;28;20179;-69
2023/04/22 11:49:40;;;;;;;;;;;21.60;99.90;;;;;;5104989;28;19990;-69
2023/04/22 11:52:08;;;;;;;;;;;21.50;99.90;;;;;;5105024;28;19927;-69
2023/04/22 11:54:35;;;;;;;;;;;21.40;99.90;;;;;;5105115;28;19926;-67
2023/04/22 11:57:02;;;;;;;;;;;21.40;99.90;;;;;;5104245;28;19920;-69
2023/04/22 11:59:29;;;;;;;;;;;21.50;99.90;;;;;;5104973;28;19983;-69
2023/04/22 12:01:56;;;;;;;;;;;21.60;99.90;;;;;;5104683;28;20149;-70
2023/04/22 12:04:22;;;;;;;;;;;21.90;99.90;;;;;;5104615;28;19963;-68
2023/04/22 12:06:49;;;;;;;;;;;22.00;99.90;;;;;;5104506;28;19989;-67
2023/04/22 12:09:17;;;;;;;;;;;22.10;99.90;;;;;;5104775;28;19958;-68
2023/04/22 12:11:44;;;;;;;;;;;22.20;99.90;;;;;;5104687;28;19983;-68
2023/04/22 12:14:11;;;;;;;;;;;22.30;99.90;;;;;;5104153;28;19924;-68
2023/04/22 12:16:41;;;;;;;;;;;22.40;99.90;;;;;;5113832;28;20030;-66
2023/04/22 12:19:08;;;;;;;;;;;22.50;99.90;;;;;;5104763;28;19920;-67
2023/04/22 12:21:35;;;;;;;;;;;22.60;99.90;;;;;;5118894;28;19926;-66
2023/04/22 12:24:03;;;;;;;;;;;22.60;99.90;;;;;;5123758;27;20127;-67
2023/04/22 12:26:31;;;;;;;;;;;22.60;99.90;;;;;;5116423;27;19920;-67
2023/04/22 12:28:59;;;;;;;;;;;22.80;99.90;;;;;;5101515;28;19926;-67
2023/04/22 12:31:26;;;;;;;;;;;22.90;99.90;;;;;;5115451;28;19927;-66
2023/04/22 12:33:54;;;;;;;;;;;22.90;98.50;;;;;;5116027;28;19922;-66
2023/04/22 12:36:21;;;;;;;;;;;22.70;99.20;;;;;;5105457;28;19965;-67
2023/04/22 12:38:47;;;;;;;;;;;22.50;99.00;;;;;;5112871;28;19920;-66
2023/04/22 12:41:15;;;;;;;;;;;22.40;99.50;;;;;;5112918;28;19927;-67
2023/04/22 12:43:43;;;;;;;;;;;22.50;99.90;;;;;;5110999;28;19942;-68
2023/04/22 12:46:10;;;;;;;;;;;22.80;99.90;;;;;;5115003;28;19919;-67
2023/04/22 12:48:36;;;;;;;;;;;22.80;99.90;;;;;;5124038;28;19920;-67
2023/04/22 12:51:03;;;;;;;;;;;23.10;99.90;;;;;;5123618;28;20258;-67
2023/04/22 12:53:30;;;;;;;;;;;23.50;99.90;;;;;;5119319;28;19954;-67
2023/04/22 12:55:56;;;;;;;;;;;23.90;99.90;;;;;;5103247;28;19999;-67
2023/04/22 12:58:24;;;;;;;;;;;24.30;99.90;;;;;;5103199;28;19951;-67
2023/04/22 13:00:52;;;;;;;;;;;24.50;99.30;;;;;;5120131;28;20161;-67
2023/04/22 13:03:18;;;;;;;;;;;24.70;98.30;;;;;;5123611;28;20280;-67
2023/04/22 13:05:45;;;;;;;;;;;24.90;97.70;;;;;;5123049;28;19962;-66
2023/04/22 13:08:12;;;;;;;;;;;25.10;98.10;;;;;;5120917;28;19926;-67
2023/04/22 13:10:38;;;;;;;;;;;25.40;95.60;;;;;;5118389;28;19984;-66
2023/04/22 13:13:06;;;;;;;;;;;25.60;92.60;;;;;;5105631;28;19982;-68
2023/04/22 13:15:33;;;;;;;;;;;25.40;88.70;;;;;;5106492;28;19943;-66
2023/04/22 13:18:01;;;;;;;;;;;25.40;90.80;;;;;;5113894;28;20187;-67
2023/04/22 13:20:28;;;;;;;;;;;25.50;87.80;;;;;;5103499;28;19928;-67
2023/04/22 13:22:55;;;;;;;;;;;25.30;89.10;;;;;;5103554;28;19958;-66
2023/04/22 13:25:21;;;;;;;;;;;25.40;88.20;;;;;;5110772;28;20212;-68
2023/04/22 13:27:48;;;;;;;;;;;25.40;83.70;;;;;;5109250;28;19996;-69
2023/04/22 13:30:15;;;;;;;;;;;25.30;87.20;;;;;;5112798;28;19959;-66
2023/04/22 13:32:42;;;;;;;;;;;25.00;85.60;;;;;;5124057;28;20212;-68
2023/04/22 13:35:10;;;;;;;;;;;24.80;85.70;;;;;;5115981;28;19926;-68
2023/04/22 13:37:36;;;;;;;;;;;24.90;88.40;;;;;;5121500;28;19983;-68
2023/04/22 13:40:04;;;;;;;;;;;24.90;86.00;;;;;;5107295;28;19991;-71
2023/04/22 13:42:31;;;;;;;;;;;24.70;87.40;;;;;;5119187;28;20237;-68
2023/04/22 13:44:57;;;;;;;;;;;24.80;88.50;;;;;;5117606;28;20232;-68
2023/04/22 13:47:24;;;;;;;;;;;25.00;89.10;;;;;;5106523;28;19951;-69
2023/04/22 13:49:51;;;;;;;;;;;24.90;88.30;;;;;;5109132;28;20083;-69
2023/04/22 13:52:19;;;;;;;;;;;24.80;89.70;;;;;;5127021;28;19919;-68
2023/04/22 13:54:46;;;;;;;;;;;24.90;85.90;;;;;;5119835;28;19928;-69
2023/04/22 13:57:12;;;;;;;;;;;25.00;88.50;;;;;;5126005;28;19987;-67
2023/04/22 13:59:40;;;;;;;;;;;25.30;90.50;;;;;;5106995;28;19991;-71
2023/04/22 14:02:07;;;;;;;;;;;25.60;84.80;;;;;;5121265;28;20234;-67
2023/04/22 14:04:34;;;;;;;;;;;25.50;84.90;;;;;;5126815;28;19919;-71
2023/04/22 14:07:01;;;;;;;;;;;25.40;86.20;;;;;;5124061;28;19983;-70
2023/04/22 14:09:29;;;;;;;;;;;25.40;85.90;;;;;;5107102;28;19958;-70
2023/04/22 14:11:56;;;;;;;;;;;25.30;83.70;;;;;;5106772;28;19931;-70
2023/04/22 14:14:22;;;;;;;;;;;25.20;85.10;;;;;;5106733;28;19987;-70
2023/04/22 14:16:50;;;;;;;;;;;25.10;82.80;;;;;;5105926;28;19987;-73
2023/04/22 14:19:17;;;;;;;;;;;25.20;87.90;;;;;;5106424;28;19920;-70
2023/04/22 14:21:43;;;;;;;;;;;25.30;85.50;;;;;;5106553;28;19958;-69